Time;durP1;ratioP1;P1;durP2;ratioP2;P2;SDS_P1;SDS_P2;PMS_P1;PMS_P2;Temp;Humidity;BMP_temperature;BMP_pressure;BME280_temperature;BME280_humidity;BME280_pressure;Samples;Min_cycle;Max_cycle;Signal;HPM_P1;HPM_P2
2022/05/01 00:00:46;;;;;;;2.90;2.60;;;;;;;18.75;49.75;97637.53;4883951;29;20237;-88
2022/05/01 00:03:30;;;;;;;2.90;2.60;;;;;;;19.49;49.65;97761.28;4883671;29;20202;-88
2022/05/01 00:06:01;;;;;;;2.70;2.50;;;;;;;19.40;49.54;97740.53;4909363;29;20262;-89
2022/05/01 00:08:27;;;;;;;2.87;2.57;;;;;;;19.51;49.63;97759.69;4900389;29;20260;-89
2022/05/01 00:10:54;;;;;;;2.77;2.53;;;;;;;19.37;49.39;97743.81;4884820;29;20223;-89
2022/05/01 00:13:39;;;;;;;3.00;2.80;;;;;;;18.71;49.69;97620.41;4883401;29;20199;-89
2022/05/01 00:16:06;;;;;;;3.20;3.00;;;;;;;18.93;49.60;97663.78;4907445;29;20190;-89
2022/05/01 00:18:32;;;;;;;2.63;2.43;;;;;;;18.50;49.56;97591.53;4906165;29;20219;-88
2022/05/01 00:20:59;;;;;;;2.70;2.50;;;;;;;19.32;49.53;97730.00;4894007;29;20222;-89
2022/05/01 00:23:26;;;;;;;2.43;2.30;;;;;;;18.61;49.63;97618.25;4912914;29;20228;-89
2022/05/01 00:25:53;;;;;;;2.70;2.50;;;;;;;19.66;49.61;97791.75;4888176;29;20204;-89
2022/05/01 00:28:19;;;;;;;2.90;2.70;;;;;;;18.49;49.69;97587.22;4901833;29;20211;-89
2022/05/01 00:30:46;;;;;;;2.80;2.60;;;;;;;19.43;49.73;97748.28;4899238;29;20228;-88
2022/05/01 00:38:43;;;;;;;2.70;2.50;;;;;;;18.88;49.66;97645.75;4899600;29;20226;-89
2022/05/01 00:41:11;;;;;;;2.70;2.50;;;;;;;19.15;49.74;97695.28;4890720;29;20231;-88
2022/05/01 00:44:12;;;;;;;2.80;2.60;;;;;;;18.67;49.73;97621.94;4891208;29;20218;-88
2022/05/01 00:46:41;;;;;;;2.83;2.63;;;;;;;18.39;49.56;97560.53;4902065;29;20236;-89
2022/05/01 00:49:10;;;;;;;2.50;2.30;;;;;;;19.47;49.78;97748.47;4885419;29;20285;-88
2022/05/01 00:52:07;;;;;;;2.57;2.37;;;;;;;19.25;49.75;97714.38;4877490;29;20206;-88
2022/05/01 00:54:33;;;;;;;2.83;2.60;;;;;;;18.68;49.95;97617.75;4877192;29;20207;-88
2022/05/01 00:57:01;;;;;;;2.70;2.50;;;;;;;19.41;49.71;97740.59;4883764;29;20456;-89
2022/05/01 00:59:29;;;;;;;2.33;2.23;;;;;;;19.60;49.63;97771.09;4869596;29;20235;-89
2022/05/01 01:01:56;;;;;;;3.03;2.77;;;;;;;19.31;49.61;97723.19;4866974;29;20224;-89
2022/05/01 01:04:23;;;;;;;2.30;2.13;;;;;;;19.19;49.77;97709.88;4904365;29;20226;-89
2022/05/01 01:06:49;;;;;;;2.73;2.53;;;;;;;19.82;49.59;97811.97;4907967;29;20199;-88
2022/05/01 01:09:17;;;;;;;2.50;2.40;;;;;;;18.54;49.45;97585.75;4900828;29;20207;-89
2022/05/01 01:11:43;;;;;;;2.73;2.53;;;;;;;18.46;49.61;97579.44;4900832;29;20211;-89
2022/05/01 01:14:10;;;;;;;2.63;2.40;;;;;;;19.20;49.59;97700.56;4899533;29;20203;-88
2022/05/01 01:16:37;;;;;;;2.43;2.27;;;;;;;19.42;49.68;97737.22;4899424;29;20201;-88
2022/05/01 01:19:05;;;;;;;2.90;2.70;;;;;;;19.13;49.74;97685.84;4882652;29;20243;-88
2022/05/01 01:21:32;;;;;;;2.77;2.57;;;;;;;19.88;49.63;97837.72;4897987;29;20197;-89
2022/05/01 01:23:59;;;;;;;2.67;2.47;;;;;;;18.75;49.53;97615.50;4885813;29;20192;-89
2022/05/01 01:26:26;;;;;;;2.60;2.40;;;;;;;19.78;49.80;97810.09;4884497;29;20209;-88
2022/05/01 01:28:52;;;;;;;2.73;2.53;;;;;;;18.31;49.31;97543.16;4900411;29;20270;-88
2022/05/01 01:34:05;;;;;;;2.57;2.37;;;;;;;19.44;49.71;97735.63;4887454;29;20203;-88
2022/05/01 01:36:32;;;;;;;2.67;2.47;;;;;;;19.78;49.60;97792.25;4887011;29;20203;-89
2022/05/01 01:38:59;;;;;;;2.60;2.40;;;;;;;18.64;49.75;97590.41;4901018;29;20223;-89
2022/05/01 01:41:30;;;;;;;2.83;2.63;;;;;;;18.81;49.62;97623.41;4899723;29;20207;-88
2022/05/01 01:43:56;;;;;;;2.70;2.50;;;;;;;18.62;49.61;97579.31;4885691;29;20195;-89
2022/05/01 01:46:23;;;;;;;2.60;2.40;;;;;;;19.40;49.61;97723.56;4883991;29;20207;-88
2022/05/01 01:48:51;;;;;;;2.77;2.57;;;;;;;18.64;49.62;97609.09;4899617;29;20228;-89
2022/05/01 01:51:18;;;;;;;2.30;2.10;;;;;;;19.87;49.79;97805.38;4882354;29;20365;-88
2022/05/01 01:53:44;;;;;;;2.70;2.50;;;;;;;19.39;49.71;97718.41;4865510;29;20203;-88
2022/05/01 01:56:11;;;;;;;2.83;2.63;;;;;;;17.96;49.48;97478.09;4898467;29;20207;-88
2022/05/01 01:58:39;;;;;;;2.40;2.30;;;;;;;18.85;49.72;97617.63;4883166;29;20226;-89
2022/05/01 02:01:07;;;;;;;2.73;2.53;;;;;;;18.57;49.53;97570.59;4867011;29;20215;-89
2022/05/01 02:03:33;;;;;;;2.73;2.53;;;;;;;18.58;49.55;97578.28;4900560;29;20221;-89
2022/05/01 02:06:00;;;;;;;2.87;2.67;;;;;;;19.87;49.65;97797.72;4919987;29;20194;-89
2022/05/01 02:08:27;;;;;;;2.63;2.43;;;;;;;19.07;49.24;97670.31;4886099;29;20232;-88
2022/05/01 02:10:53;;;;;;;2.80;2.60;;;;;;;19.41;49.71;97720.19;4884520;29;20214;-88
2022/05/01 02:13:20;;;;;;;2.60;2.40;;;;;;;19.37;49.66;97712.38;4898070;29;20211;-88
2022/05/01 02:15:47;;;;;;;2.40;2.20;;;;;;;19.31;49.72;97710.44;4899897;29;20195;-89
2022/05/01 02:18:14;;;;;;;2.73;2.53;;;;;;;19.36;49.76;97708.94;4884279;29;20234;-89
2022/05/01 02:23:25;;;;;;;2.60;2.40;;;;;;;19.09;49.74;97661.03;4900062;29;20212;-89
2022/05/01 02:25:52;;;;;;;2.63;2.43;;;;;;;19.20;49.78;97688.72;4901810;29;20209;-88
2022/05/01 02:28:24;;;;;;;2.80;2.60;;;;;;;17.74;49.40;97428.00;4884067;29;20206;-89
2022/05/01 02:30:51;;;;;;;2.70;2.50;;;;;;;19.65;49.66;97759.41;4899009;29;20223;-88
2022/05/01 02:33:20;;;;;;;2.60;2.40;;;;;;;19.45;49.48;97726.28;4899905;29;20199;-89
2022/05/01 02:35:47;;;;;;;2.37;2.20;;;;;;;18.51;49.56;97557.63;4901649;29;20228;-89
2022/05/01 02:38:14;;;;;;;2.40;2.30;;;;;;;19.43;49.89;97722.81;4869227;29;20235;-89
2022/05/01 02:40:40;;;;;;;2.53;2.33;;;;;;;19.40;49.65;97718.47;4897745;29;20260;-89
2022/05/01 02:43:07;;;;;;;2.73;2.53;;;;;;;18.31;49.63;97528.78;4882514;29;20187;-89
2022/05/01 02:45:33;;;;;;;2.70;2.50;;;;;;;18.76;49.35;97616.34;4882798;29;20222;-88
2022/05/01 02:48:00;;;;;;;2.63;2.43;;;;;;;18.72;49.59;97602.66;4883211;29;20625;-89
2022/05/01 02:50:27;;;;;;;2.93;2.70;;;;;;;19.41;49.78;97720.19;4898111;29;20279;-89
2022/05/01 02:52:55;;;;;;;2.70;2.50;;;;;;;19.78;50.02;97778.63;4896265;29;20210;-88
2022/05/01 02:55:21;;;;;;;2.40;2.20;;;;;;;19.46;49.83;97718.72;4897125;29;20653;-88
2022/05/01 02:57:48;;;;;;;2.60;2.40;;;;;;;18.40;49.41;97538.47;4898816;29;20227;-89
2022/05/01 03:00:17;;;;;;;2.60;2.40;;;;;;;19.67;49.84;97779.88;4881645;29;20231;-88
2022/05/01 03:02:48;;;;;;;2.70;2.50;;;;;;;19.61;49.70;97746.50;4897871;29;20210;-89
2022/05/01 03:05:15;;;;;;;2.70;2.50;;;;;;;18.60;49.64;97581.78;4912975;29;20209;-89
2022/05/01 03:07:42;;;;;;;2.70;2.50;;;;;;;18.65;49.80;97585.38;4910067;29;20198;-89
2022/05/01 03:10:10;;;;;;;2.63;2.43;;;;;;;18.66;49.75;97576.06;4899139;29;20226;-88
2022/05/01 03:12:37;;;;;;;2.63;2.43;;;;;;;19.80;49.83;97777.00;4897772;29;20203;-89
2022/05/01 03:15:05;;;;;;;2.73;2.53;;;;;;;19.84;49.61;97789.09;4897263;29;20207;-89
2022/05/01 03:22:10;;;;;;;2.67;2.47;;;;;;;18.35;49.91;97534.88;4881589;29;20194;-89
2022/05/01 03:23:05;;;;;;;2.70;2.50;;;;;;;19.28;49.70;97696.69;4862395;29;20210;-89
2022/05/01 03:25:32;;;;;;;2.93;2.73;;;;;;;19.59;49.83;97748.09;4899901;29;20222;-89
2022/05/01 03:27:59;;;;;;;2.70;2.50;;;;;;;19.70;49.81;97768.13;4897922;29;20203;-89
2022/05/01 03:30:25;;;;;;;2.80;2.60;;;;;;;19.70;49.74;97764.69;4896063;29;20487;-88
2022/05/01 03:32:52;;;;;;;2.50;2.40;;;;;;;19.07;50.03;97676.25;4895668;29;20195;-89
2022/05/01 03:35:19;;;;;;;2.40;2.20;;;;;;;18.73;49.73;97613.69;4900672;29;20187;-89
2022/05/01 03:37:46;;;;;;;2.73;2.53;;;;;;;19.40;49.89;97717.59;4883466;29;20202;-89
2022/05/01 03:40:14;;;;;;;3.07;2.77;;;;;;;18.48;49.92;97568.56;4897399;29;20227;-89
2022/05/01 03:42:42;;;;;;;2.80;2.60;;;;;;;19.11;49.82;97672.16;4897744;29;20207;-88
2022/05/01 03:45:09;;;;;;;2.43;2.23;;;;;;;19.07;49.77;97667.78;4899094;29;20307;-89
2022/05/01 03:47:37;;;;;;;2.77;2.57;;;;;;;19.65;49.83;97768.72;4898052;29;20210;-89
2022/05/01 03:50:05;;;;;;;2.80;2.60;;;;;;;18.65;49.85;97608.28;4880591;29;20238;-89
2022/05/01 03:52:33;;;;;;;2.63;2.43;;;;;;;19.39;49.81;97719.25;4880290;29;20219;-88
2022/05/01 03:55:00;;;;;;;2.70;2.50;;;;;;;18.69;49.74;97594.91;4878143;29;20199;-89
2022/05/01 03:57:34;;;;;;;2.60;2.40;;;;;;;18.88;49.73;97635.56;4879516;29;20235;-89
2022/05/01 04:00:00;;;;;;;2.97;2.77;;;;;;;18.72;49.81;97628.13;4836713;29;1173777;-89
2022/05/01 04:02:27;;;;;;;2.60;2.40;;;;;;;18.57;49.75;97578.22;4874053;29;20207;-89
2022/05/01 04:04:54;;;;;;;2.60;2.40;;;;;;;19.11;49.78;97672.16;4892521;29;20266;-88
2022/05/01 04:07:21;;;;;;;2.90;2.70;;;;;;;19.72;49.65;97791.16;4899405;29;20219;-88
2022/05/01 04:09:47;;;;;;;2.67;2.47;;;;;;;19.03;49.86;97660.78;4899102;29;20240;-89
2022/05/01 04:12:15;;;;;;;2.67;2.47;;;;;;;18.17;49.67;97509.50;4880574;29;20236;-89
2022/05/01 04:14:41;;;;;;;2.40;2.20;;;;;;;19.15;49.95;97685.09;4883210;29;20199;-88
2022/05/01 04:17:08;;;;;;;2.60;2.40;;;;;;;18.52;49.96;97572.94;4897332;29;20203;-89
2022/05/01 04:19:34;;;;;;;2.73;2.53;;;;;;;19.33;49.97;97716.44;4897584;29;20215;-88
2022/05/01 04:22:01;;;;;;;2.70;2.50;;;;;;;19.64;49.85;97773.00;4898193;29;20212;-88
2022/05/01 04:24:28;;;;;;;2.70;2.50;;;;;;;18.68;49.83;97616.03;4900488;29;20180;-89
2022/05/01 04:26:55;;;;;;;2.80;2.60;;;;;;;18.39;49.54;97558.00;4900302;29;20214;-88
2022/05/01 04:29:36;;;;;;;3.07;2.87;;;;;;;19.01;49.88;97657.31;4901725;29;20211;-89
2022/05/01 04:32:05;;;;;;;2.83;2.63;;;;;;;19.53;50.31;97755.50;4884687;29;20709;-89
2022/05/01 04:34:32;;;;;;;2.70;2.50;;;;;;;19.49;49.71;97746.00;4902078;29;20187;-88
2022/05/01 04:36:59;;;;;;;2.90;2.70;;;;;;;18.49;49.96;97589.75;4873234;29;20187;-88
2022/05/01 04:39:26;;;;;;;2.67;2.47;;;;;;;19.38;49.93;97720.06;4900969;29;20311;-89
2022/05/01 04:41:53;;;;;;;2.80;2.60;;;;;;;18.47;49.91;97566.78;4900142;29;20236;-89
2022/05/01 04:44:20;;;;;;;2.70;2.50;;;;;;;19.57;49.84;97760.78;4902052;29;20203;-89
2022/05/01 04:46:49;;;;;;;2.70;2.50;;;;;;;18.81;49.91;97628.50;4901153;29;20199;-88
2022/05/01 04:49:18;;;;;;;2.80;2.60;;;;;;;17.90;49.90;97467.66;4900206;29;20218;-89
2022/05/01 04:51:46;;;;;;;2.70;2.50;;;;;;;19.05;49.85;97679.56;4867619;29;20247;-88
2022/05/01 04:54:13;;;;;;;2.80;2.60;;;;;;;19.24;49.51;97699.88;4882165;29;20207;-88
2022/05/01 04:59:25;;;;;;;2.50;2.30;;;;;;;19.09;50.01;97671.22;4902120;29;20226;-89
2022/05/01 05:01:52;;;;;;;3.00;2.80;;;;;;;18.20;49.82;97522.34;4903705;29;20258;-90
2022/05/01 05:04:19;;;;;;;2.70;2.50;;;;;;;18.98;49.95;97658.06;4896366;29;20189;-89
2022/05/01 05:06:45;;;;;;;2.80;2.60;;;;;;;18.15;49.79;97526.41;4922009;29;20191;-89
2022/05/01 05:11:57;;;;;;;2.97;2.77;;;;;;;19.46;49.82;97740.78;4894938;29;20199;-88
2022/05/01 05:14:24;;;;;;;2.73;2.53;;;;;;;18.64;50.02;97615.84;4877993;29;20243;-89
2022/05/01 05:16:51;;;;;;;2.93;2.73;;;;;;;19.51;49.93;97755.44;4858900;29;20207;-89
2022/05/01 05:19:18;;;;;;;2.90;2.70;;;;;;;18.35;50.01;97556.06;4875895;29;20235;-89
2022/05/01 05:21:44;;;;;;;3.07;2.87;;;;;;;18.38;49.69;97578.28;4891040;29;20211;-89
2022/05/01 05:24:20;;;;;;;4.37;2.93;;;;;;;18.94;49.91;97671.47;4862787;29;20202;-88
2022/05/01 05:26:47;;;;;;;3.43;2.90;;;;;;;19.31;49.89;97727.41;4857981;29;20211;-89
2022/05/01 05:29:14;;;;;;;2.87;2.57;;;;;;;18.87;49.90;97649.13;4873279;29;20219;-89
2022/05/01 05:31:40;;;;;;;3.50;3.10;;;;;;;19.29;49.83;97724.78;4893251;29;20203;-89
2022/05/01 05:34:08;;;;;;;3.33;3.03;;;;;;;18.80;49.99;97634.38;4899486;29;20217;-89
2022/05/01 05:36:34;;;;;;;2.93;2.73;;;;;;;18.99;50.00;97664.91;4883287;29;20198;-90
2022/05/01 05:39:01;;;;;;;2.87;2.67;;;;;;;19.05;49.89;97675.34;4871796;29;20230;-89
2022/05/01 05:41:28;;;;;;;5.77;2.90;;;;;;;18.76;49.86;97657.97;4863793;29;20187;-92
2022/05/01 05:43:57;;;;;;;3.17;2.97;;;;;;;18.74;49.83;97635.81;4867372;29;20201;-91
2022/05/01 05:46:27;;;;;;;3.27;3.00;;;;;;;17.15;49.75;97353.44;4858373;29;20212;-92
2022/05/01 05:48:56;;;;;;;2.83;2.63;;;;;;;17.89;49.81;97497.28;4858287;29;20250;-92
2022/05/01 05:51:23;;;;;;;2.80;2.60;;;;;;;18.47;50.05;97604.13;4872359;29;20214;-91
2022/05/01 05:53:50;;;;;;;2.80;2.57;;;;;;;19.26;49.91;97739.03;4857486;29;20187;-92
2022/05/01 05:56:18;;;;;;;2.90;2.70;;;;;;;19.63;49.76;97834.13;4857760;29;20175;-93
2022/05/01 05:58:45;;;;;;;2.93;2.73;;;;;;;17.40;49.68;97442.56;4857375;29;20247;-92
2022/05/01 06:01:12;;;;;;;2.77;2.57;;;;;;;18.27;49.79;97617.63;4872804;29;20218;-92
2022/05/01 06:03:39;;;;;;;2.90;2.70;;;;;;;18.32;49.72;97608.50;4859942;29;20195;-93
2022/05/01 06:06:07;;;;;;;3.20;3.00;;;;;;;17.69;49.95;97502.31;4880272;29;20211;-92
2022/05/01 06:08:38;;;;;;;3.60;3.30;;;;;;;17.59;49.90;97465.47;4857413;29;20199;-91
2022/05/01 06:11:05;;;;;;;3.17;2.97;;;;;;;19.81;49.95;97845.91;4869320;29;20215;-92
2022/05/01 06:13:33;;;;;;;3.17;2.87;;;;;;;18.23;49.77;97581.88;4883141;29;20188;-92
2022/05/01 06:16:06;;;;;;;2.83;2.50;;;;;;;17.30;49.79;97427.75;4879752;29;20180;-92
2022/05/01 06:18:37;;;;;;;3.17;2.87;;;;;;;17.89;49.89;97535.41;4890617;29;20207;-91
2022/05/01 06:21:05;;;;;;;3.40;2.80;;;;;;;16.79;49.71;97356.88;4857202;29;20211;-91
2022/05/01 06:23:34;;;;;;;3.70;3.07;;;;;;;18.29;50.13;97593.13;4857606;29;20194;-91
2022/05/01 06:26:07;;;;;;;3.03;2.73;;;;;;;18.13;49.81;97564.47;4872881;29;20191;-91
2022/05/01 06:28:34;;;;;;;4.47;3.03;;;;;;;18.84;49.79;97689.72;4888553;29;20232;-91
2022/05/01 06:31:00;;;;;;;3.70;3.30;;;;;;;18.31;49.96;97639.81;4887575;29;20267;-91
2022/05/01 06:33:28;;;;;;;4.93;2.90;;;;;;;17.56;50.07;97511.06;4871907;29;20286;-91
2022/05/01 06:35:54;;;;;;;3.67;3.30;;;;;;;18.20;49.74;97591.03;4857402;29;20190;-91
2022/05/01 06:38:23;;;;;;;3.67;3.20;;;;;;;18.96;49.82;97732.66;4872560;29;20182;-93
2022/05/01 06:40:49;;;;;;;4.03;3.67;;;;;;;17.58;49.84;97471.34;4877542;29;20218;-93
2022/05/01 06:43:17;;;;;;;4.60;3.50;;;;;;;18.10;49.84;97596.53;4900614;29;20179;-92
2022/05/01 06:45:45;;;;;;;4.00;3.50;;;;;;;17.53;49.83;97467.75;4860498;29;20186;-91
2022/05/01 06:48:17;;;;;;;4.27;3.80;;;;;;;19.20;49.98;97770.25;4872941;29;20231;-92
2022/05/01 06:50:44;;;;;;;4.63;3.77;;;;;;;18.94;49.68;97724.97;4887236;29;20211;-92
2022/05/01 06:53:10;;;;;;;5.03;3.90;;;;;;;17.85;50.24;97545.38;4887053;29;20179;-92
2022/05/01 06:55:37;;;;;;;3.93;3.63;;;;;;;16.96;49.96;97385.56;4856828;29;20218;-91
2022/05/01 06:58:04;;;;;;;11.30;3.97;;;;;;;18.05;49.86;97557.31;4857200;29;20260;-93
2022/05/01 07:00:31;;;;;;;4.97;4.17;;;;;;;19.40;50.06;97799.13;4871549;29;20235;-92
2022/05/01 07:02:59;;;;;;;4.50;4.10;;;;;;;16.90;49.82;97373.44;4857473;29;20171;-93
2022/05/01 07:05:26;;;;;;;5.37;4.40;;;;;;;18.24;50.21;97598.84;4989787;23;20229;-92
2022/05/01 07:07:59;;;;;;;5.57;5.07;;;;;;;19.32;49.96;97797.94;4928911;28;20173;-93
2022/05/01 07:18:44;;;;;;;5.27;4.77;;;;;;;16.85;49.92;97387.63;4959810;29;20189;-93
2022/05/01 07:24:06;;;;;;;5.00;4.60;;;;;;;18.43;50.06;97628.53;4957538;23;20220;-92
2022/05/01 07:26:33;;;;;;;5.20;4.50;;;;;;;19.00;49.90;97737.06;4940721;28;20177;-91
2022/05/01 07:29:00;;;;;;;4.90;4.50;;;;;;;17.36;50.15;97437.28;4923828;29;20177;-90
2022/05/01 07:31:29;;;;;;;6.13;4.00;;;;;;;17.63;49.96;97508.03;4924535;29;20196;-92
2022/05/01 07:33:55;;;;;;;4.47;4.07;;;;;;;18.35;49.88;97629.84;4908329;29;20185;-93
2022/05/01 07:36:23;;;;;;;4.70;4.30;;;;;;;18.32;50.07;97639.03;4917759;29;20185;-92
2022/05/01 07:38:50;;;;;;;4.90;4.17;;;;;;;18.33;50.16;97620.41;4908003;29;20209;-92
2022/05/01 07:41:17;;;;;;;4.30;3.87;;;;;;;18.11;50.00;97577.91;4912776;29;20185;-92
2022/05/01 07:43:47;;;;;;;4.37;3.97;;;;;;;18.42;49.92;97629.38;4910799;28;20177;-90
2022/05/01 07:46:14;;;;;;;6.73;4.43;;;;;;;17.92;50.28;97538.09;4931553;29;20181;-91
2022/05/01 07:48:40;;;;;;;4.27;3.60;;;;;;;18.56;49.91;97657.94;4920316;28;20218;-92
2022/05/01 07:51:07;;;;;;;4.77;4.07;;;;;;;18.73;50.00;97701.13;4953044;28;20217;-90
2022/05/01 07:53:34;;;;;;;4.57;4.17;;;;;;;18.53;50.00;97635.75;4928110;29;20189;-91
2022/05/01 07:56:00;;;;;;;3.90;3.60;;;;;;;18.56;50.49;97670.66;4930628;29;20190;-91
2022/05/01 07:58:28;;;;;;;7.70;3.83;;;;;;;18.03;50.10;97562.31;4912378;29;20189;-93
2022/05/01 08:01:03;;;;;;;4.83;4.00;;;;;;;18.78;50.00;97683.50;4930404;29;20240;-92
2022/05/01 08:06:16;;;;;;;3.90;3.50;;;;;;;17.86;50.05;97548.00;4949037;29;20245;-92
2022/05/01 08:08:42;;;;;;;3.77;3.47;;;;;;;18.17;50.39;97568.88;4915190;29;20204;-93
2022/05/01 08:11:12;;;;;;;5.23;3.80;;;;;;;19.27;50.01;97802.00;4926618;29;20178;-93
2022/05/01 08:13:39;;;;;;;3.70;3.40;;;;;;;17.72;49.99;97522.78;4911924;29;20185;-93
2022/05/01 08:16:06;;;;;;;5.33;3.77;;;;;;;18.55;49.88;97654.53;4903397;29;20211;-92
2022/05/01 08:21:21;;;;;;;5.40;3.83;;;;;;;19.80;50.15;97861.16;4919425;29;20182;-93
2022/05/01 08:23:48;;;;;;;3.77;3.47;;;;;;;18.32;49.84;97603.44;4911669;29;20186;-93
2022/05/01 08:26:17;;;;;;;7.30;4.20;;;;;;;18.41;49.66;97632.69;4913791;29;20182;-93
2022/05/01 08:28:45;;;;;;;5.87;3.97;;;;;;;19.02;50.25;97730.38;4915297;29;20180;-92
2022/05/01 08:31:12;;;;;;;4.60;4.10;;;;;;;18.68;50.21;97655.94;4916360;29;20177;-93
2022/05/01 08:33:38;;;;;;;4.03;3.37;;;;;;;18.75;50.04;97683.38;4928005;28;20185;-92
2022/05/01 08:36:06;;;;;;;3.80;3.50;;;;;;;18.76;50.00;97685.97;4910659;29;20182;-93
2022/05/01 08:38:33;;;;;;;5.97;3.53;;;;;;;19.24;50.10;97761.91;4896157;29;20193;-92
2022/05/01 08:41:00;;;;;;;5.40;3.83;;;;;;;18.95;49.76;97731.78;4895641;29;20225;-92
2022/05/01 08:43:27;;;;;;;3.97;3.47;;;;;;;19.03;50.06;97724.47;4910806;29;20186;-93
2022/05/01 08:46:28;;;;;;;4.00;3.67;;;;;;;18.97;49.83;97706.38;4916170;29;20190;-92
2022/05/01 08:49:05;;;;;;;3.83;3.40;;;;;;;18.36;50.01;97602.75;4929784;29;20194;-92
2022/05/01 08:51:35;;;;;;;4.23;3.63;;;;;;;18.18;49.91;97579.94;4902457;29;20210;-92
2022/05/01 08:54:12;;;;;;;3.73;3.30;;;;;;;19.39;49.62;97805.06;4909554;29;20194;-92
2022/05/01 08:56:41;;;;;;;3.47;3.17;;;;;;;18.71;49.67;97682.34;4902199;29;20226;-92
2022/05/01 08:59:12;;;;;;;5.17;3.20;;;;;;;18.86;49.95;97711.00;4894391;29;20221;-92
2022/05/01 09:01:40;;;;;;;6.00;3.40;;;;;;;18.66;50.20;97668.59;4921462;29;20220;-92
2022/05/01 09:04:08;;;;;;;3.07;2.87;;;;;;;18.93;50.09;97727.44;4905751;29;20221;-92
2022/05/01 09:06:35;;;;;;;3.17;2.87;;;;;;;19.33;49.97;97786.97;4902895;29;20221;-93
2022/05/01 09:09:11;;;;;;;3.77;3.20;;;;;;;18.95;49.84;97730.94;4907202;29;20449;-92
2022/05/01 09:14:24;;;;;;;3.43;3.03;;;;;;;18.62;49.90;97665.84;4921129;28;20199;-93
2022/05/01 09:17:09;;;;;;;4.80;3.07;;;;;;;19.79;49.90;97856.88;4906622;29;20257;-92
2022/05/01 09:19:44;;;;;;;4.53;3.23;;;;;;;18.12;50.08;97583.06;4932968;28;20233;-93
2022/05/01 09:22:12;;;;;;;3.03;2.83;;;;;;;18.65;49.90;97654.09;4919112;29;20273;-93
2022/05/01 09:24:39;;;;;;;3.40;3.07;;;;;;;18.72;50.01;97673.94;4920309;29;20198;-93
2022/05/01 09:27:06;;;;;;;3.50;3.20;;;;;;;18.87;50.02;97710.22;4920001;29;20202;-93
2022/05/01 09:29:34;;;;;;;4.00;3.33;;;;;;;19.00;49.96;97731.97;4895161;29;20225;-92
2022/05/01 09:32:05;;;;;;;4.07;3.70;;;;;;;18.59;49.76;97653.84;4920316;29;20205;-92
2022/05/01 09:34:33;;;;;;;3.40;3.10;;;;;;;18.45;50.19;97621.88;4922819;29;20209;-93
2022/05/01 09:37:00;;;;;;;4.93;3.07;;;;;;;19.44;50.31;97809.53;4905903;28;20201;-93
2022/05/01 09:39:28;;;;;;;4.63;3.30;;;;;;;19.16;49.97;97758.16;4907048;29;20209;-91
2022/05/01 09:42:16;;;;;;;4.20;3.30;;;;;;;18.57;50.11;97641.84;4901765;29;20425;-92
2022/05/01 09:44:43;;;;;;;3.53;3.23;;;;;;;19.05;49.95;97731.38;4922896;29;20197;-93
2022/05/01 09:47:11;;;;;;;4.93;3.00;;;;;;;18.97;50.23;97725.09;4920269;28;20192;-92
2022/05/01 09:49:48;;;;;;;5.37;3.03;;;;;;;18.64;50.17;97642.19;4908236;29;20214;-93
2022/05/01 09:52:15;;;;;;;3.43;3.13;;;;;;;18.70;49.88;97660.25;4908213;29;20193;-92
2022/05/01 09:55:00;;;;;;;3.17;2.97;;;;;;;18.74;50.15;97687.59;4921293;29;20196;-93
2022/05/01 09:57:27;;;;;;;3.53;2.90;;;;;;;18.57;50.04;97675.81;4922632;29;20240;-93
2022/05/01 09:59:54;;;;;;;3.30;3.00;;;;;;;19.28;50.00;97763.84;4903738;28;20232;-93
2022/05/01 10:02:29;;;;;;;3.40;3.10;;;;;;;18.65;49.99;97663.44;4910022;28;20185;-93
2022/05/01 10:05:02;;;;;;;4.33;3.07;;;;;;;18.95;50.11;97697.81;4906637;29;20205;-92
2022/05/01 10:07:38;;;;;;;5.93;3.13;;;;;;;18.51;49.79;97641.59;4904703;29;20264;-92
2022/05/01 10:10:08;;;;;;;3.20;2.90;;;;;;;18.99;50.12;97715.84;4919788;28;20209;-92
2022/05/01 10:12:36;;;;;;;3.07;2.80;;;;;;;18.77;50.17;97666.50;4920949;29;20193;-92
2022/05/01 10:15:03;;;;;;;3.03;2.77;;;;;;;18.59;49.98;97648.75;4905654;29;20193;-92
2022/05/01 10:17:32;;;;;;;3.07;2.87;;;;;;;17.68;49.91;97476.03;4919960;29;20233;-93
2022/05/01 10:19:59;;;;;;;3.13;2.87;;;;;;;18.61;50.07;97629.31;4903738;29;20237;-92
2022/05/01 10:22:26;;;;;;;3.70;3.00;;;;;;;18.93;50.14;97699.44;4904797;29;20241;-93
2022/05/01 10:24:53;;;;;;;3.20;2.90;;;;;;;18.74;49.90;97659.56;4905677;29;20193;-92
2022/05/01 10:27:39;;;;;;;4.27;3.17;;;;;;;19.74;50.15;97813.34;4900327;29;20217;-92
2022/05/01 10:33:28;;;;;;;3.20;2.93;;;;;;;19.75;50.06;97815.06;4921398;29;20218;-92
2022/05/01 10:36:27;;;;;;;6.17;2.97;;;;;;;18.92;49.99;97677.31;4942398;29;20216;-92
2022/05/01 10:39:02;;;;;;;3.03;2.73;;;;;;;19.75;49.79;97807.41;4949791;29;20192;-91
2022/05/01 10:41:30;;;;;;;2.83;2.63;;;;;;;18.81;49.87;97645.44;4939476;28;20193;-92
2022/05/01 10:43:58;;;;;;;2.90;2.70;;;;;;;19.32;50.05;97750.41;4908872;29;20197;-93
2022/05/01 10:46:24;;;;;;;3.37;3.00;;;;;;;19.74;50.19;97813.34;4902540;29;20177;-93
2022/05/01 10:48:52;;;;;;;2.90;2.60;;;;;;;19.37;50.00;97746.38;4937499;29;20182;-92
2022/05/01 10:51:29;;;;;;;3.60;3.30;;;;;;;19.74;50.05;97810.78;4929692;28;20201;-93
2022/05/01 10:54:19;;;;;;;3.00;2.70;;;;;;;19.74;50.13;97807.34;4933548;29;20214;-91
2022/05/01 10:56:48;;;;;;;2.90;2.70;;;;;;;19.37;50.01;97743.81;4936704;29;20190;-93
2022/05/01 10:59:43;;;;;;;4.27;2.83;;;;;;;18.89;50.29;97661.91;4918504;29;20264;-91
2022/05/01 11:02:22;;;;;;;3.17;2.97;;;;;;;19.74;50.15;97815.00;4944822;28;20486;-92
2022/05/01 11:04:49;;;;;;;3.33;3.03;;;;;;;18.49;50.29;97611.00;4943149;29;20197;-92
2022/05/01 11:07:17;;;;;;;3.27;2.97;;;;;;;18.94;50.28;97662.94;4940249;29;20204;-93
2022/05/01 11:09:45;;;;;;;3.70;2.93;;;;;;;18.76;50.31;97624.00;4939380;29;20235;-92
2022/05/01 11:12:14;;;;;;;5.23;3.50;;;;;;;18.92;50.08;97649.31;4905092;29;20181;-91
2022/05/01 11:14:51;;;;;;;3.17;2.97;;;;;;;19.74;50.51;97797.16;4905595;29;20233;-91
2022/05/01 11:17:42;;;;;;;4.13;3.40;;;;;;;19.75;50.32;97797.22;4920224;29;20193;-91
2022/05/01 11:20:29;;;;;;;6.20;3.47;;;;;;;19.76;50.40;97790.44;4947391;29;20204;-91
2022/05/01 11:22:56;;;;;;;3.60;3.30;;;;;;;18.43;50.45;97569.16;4956267;29;20240;-91
2022/05/01 11:25:38;;;;;;;6.80;3.10;;;;;;;18.97;50.35;97653.78;4940656;29;20216;-90
2022/05/01 11:28:05;;;;;;;3.77;3.47;;;;;;;19.59;50.38;97771.91;4924580;29;20213;-91
2022/05/01 11:30:32;;;;;;;3.50;3.07;;;;;;;19.77;50.47;97794.72;4920870;29;20205;-92
2022/05/01 11:33:06;;;;;;;4.50;3.63;;;;;;;18.37;50.39;97543.41;4936368;29;20196;-93
2022/05/01 11:35:54;;;;;;;4.13;3.33;;;;;;;19.10;50.26;97673.84;4954555;29;20491;-92
2022/05/01 11:38:37;;;;;;;3.80;3.07;;;;;;;18.34;50.43;97531.44;4928642;29;20192;-92
2022/05/01 11:41:04;;;;;;;3.20;3.00;;;;;;;19.36;50.38;97731.03;4958313;28;20245;-91
2022/05/01 11:43:31;;;;;;;3.93;3.03;;;;;;;18.57;50.51;97578.22;4936440;29;20241;-91
2022/05/01 11:45:59;;;;;;;5.23;3.30;;;;;;;19.34;50.34;97723.31;4950812;29;20570;-91
2022/05/01 11:48:25;;;;;;;3.20;2.93;;;;;;;18.98;50.75;97634.28;4945585;29;20240;-91
2022/05/01 11:50:52;;;;;;;3.53;3.23;;;;;;;19.04;50.15;97654.91;4893619;29;20225;-90
2022/05/01 11:53:24;;;;;;;3.13;2.93;;;;;;;18.72;50.38;97610.28;4912381;29;20200;-89
2022/05/01 12:04:38;;;;;;;3.13;2.67;;;;;;;19.24;50.66;97690.56;4945681;29;20223;-91
2022/05/01 12:07:21;;;;;;;3.40;3.10;;;;;;;18.81;50.34;97599.59;4916037;29;20212;-89
2022/05/01 12:09:48;;;;;;;4.27;3.97;;;;;;;18.96;50.12;97625.69;4961162;29;20236;-91
2022/05/01 12:12:18;;;;;;;4.80;4.40;;;;;;;18.83;50.09;97614.13;4970075;28;20193;-91
2022/05/01 12:14:45;;;;;;;6.17;5.53;;;;;;;18.44;49.95;97548.84;4963240;29;20195;-89
2022/05/01 12:17:16;;;;;;;6.23;5.63;;;;;;;19.75;50.01;97764.06;4979427;29;20729;-92
2022/05/01 12:19:50;;;;;;;6.23;5.40;;;;;;;18.71;50.00;97577.97;4930371;29;20233;-90
2022/05/01 12:22:18;;;;;;;6.40;4.90;;;;;;;18.50;50.09;97566.06;4932980;29;20215;-91
2022/05/01 12:24:45;;;;;;;4.60;4.20;;;;;;;19.33;50.27;97713.06;4946146;29;20272;-91
2022/05/01 12:27:13;;;;;;;4.50;4.07;;;;;;;18.64;50.26;97595.50;4916638;29;20190;-90
2022/05/01 12:29:41;;;;;;;4.27;3.87;;;;;;;18.31;50.38;97510.09;4953579;29;20205;-91
2022/05/01 12:32:17;;;;;;;4.97;4.47;;;;;;;18.77;50.20;97592.66;4923894;29;20188;-90
2022/05/01 12:34:44;;;;;;;4.90;4.13;;;;;;;19.76;50.66;97758.19;4946664;29;20228;-91